Aeroporto :
LOGIN :

Iscrizione | Disclaimer

   EN    FR    IT 

 










Sommario :    VFR   VFR Marginale   IFR   IFR Intensivo   IFR Molto Intensivo
Visibilità : 
Base nubi : 
>= 8 km
>= 3000ft
5 / 8 km
1000 / 3000 ft
1500m / 5 km
500 / 1000 ft
800 / 1500m
200 / 500 ft
< 800m
< 200 ft
Simboli :   Temporali  Nebbia  Neve Forte  Precipitazioni Forti  Vento > 20 kt
SIGMETs :   Varie  Temporali  Ghiacco  Turbolenza  Onda orograficha  Ceneri Vulcaniche






- Altitudine del aeroporto : 170 ft
- Codice IATA : KRP


EKKA - Karup

ULTIMO METAR :
  • 081820Z AUTO 27007KT 9999 NCD 10/04 Q1021

METARs OBSOLETI :
  • 081750Z AUTO 27009KT 9999 NCD 12/04 Q1021
  • 081720Z AUTO 27008KT 9999 FEW140/// 14/04 Q1021
  • 081650Z AUTO 28011KT 9999 BKN054/// BKN150/// 15/05 Q1021
  • 081620Z AUTO 26010KT 9999 BKN130/// 16/04 Q1021
  • 081550Z AUTO 25009KT 9999 BKN052/// BKN140/// 16/04 Q1021

TAF TAF EKKA
Valido dal 08 a 18 ore il 09 a 18 ore UTC


081721Z 0818/0918 26010KT 9999 SCT050
BECMG 0900/0902 31012KT
TEMPO 0901/0904 6000 -RADZ BKN008
TEMPO 0908/0915 32018G28KT



MetMap, La meteo Aeronautica in un colpo d'occhio ! - Copyright ORBIFLY Dicembre 2007 - Disclaimer

ORBIFLY MET'MAP TEAM :

Programmazione e sviluppo : Alexandra Zaïnal
Concezione : Baudouin d'Aumeries
Aiuto per la programmazione : Marc-Olivier Méhu
Supporto tecnico e logistico : Manuel Goepfert
Aiuto per la traduzione : Arnaldo La Scala

Contatto : metmap@orbifly.com




FONTI E CREDITI :

   NOAA